sensor_id;sensor_type;location;lat;lon;timestamp;P1;durP1;ratioP1;P2;durP2;ratioP2
23242;SDS011;11790;49.578;11.214;2023-10-31T00:03:00;10.25;;;8.00;;
23242;SDS011;11790;49.578;11.214;2023-10-31T00:08:00;10.82;;;8.13;;
23242;SDS011;11790;49.578;11.214;2023-10-31T00:13:01;10.80;;;8.18;;
23242;SDS011;11790;49.578;11.214;2023-10-31T00:18:01;9.75;;;7.45;;
23242;SDS011;11790;49.578;11.214;2023-10-31T00:28:39;8.60;;;6.38;;
23242;SDS011;11790;49.578;11.214;2023-10-31T00:38:42;8.30;;;6.75;;
23242;SDS011;11790;49.578;11.214;2023-10-31T00:43:42;8.30;;;6.50;;
23242;SDS011;11790;49.578;11.214;2023-10-31T00:48:42;8.88;;;6.20;;
23242;SDS011;11790;49.578;11.214;2023-10-31T00:53:42;9.13;;;5.65;;
23242;SDS011;11790;49.578;11.214;2023-10-31T00:58:43;10.90;;;5.18;;
23242;SDS011;11790;49.578;11.214;2023-10-31T01:03:43;8.52;;;5.55;;
23242;SDS011;11790;49.578;11.214;2023-10-31T01:08:43;8.87;;;5.80;;
23242;SDS011;11790;49.578;11.214;2023-10-31T01:13:43;7.32;;;5.93;;
23242;SDS011;11790;49.578;11.214;2023-10-31T01:18:44;6.10;;;5.15;;
23242;SDS011;11790;49.578;11.214;2023-10-31T01:23:44;7.85;;;5.50;;
23242;SDS011;11790;49.578;11.214;2023-10-31T01:28:44;6.28;;;4.78;;
23242;SDS011;11790;49.578;11.214;2023-10-31T01:33:45;5.78;;;4.25;;
23242;SDS011;11790;49.578;11.214;2023-10-31T01:38:45;6.45;;;4.20;;
23242;SDS011;11790;49.578;11.214;2023-10-31T01:43:46;4.40;;;3.60;;
23242;SDS011;11790;49.578;11.214;2023-10-31T01:48:46;3.97;;;3.22;;
23242;SDS011;11790;49.578;11.214;2023-10-31T01:53:46;4.60;;;3.60;;
23242;SDS011;11790;49.578;11.214;2023-10-31T01:58:47;5.68;;;3.40;;
23242;SDS011;11790;49.578;11.214;2023-10-31T02:03:48;3.83;;;3.08;;
23242;SDS011;11790;49.578;11.214;2023-10-31T02:08:48;5.20;;;3.25;;
23242;SDS011;11790;49.578;11.214;2023-10-31T02:13:48;3.67;;;2.70;;
23242;SDS011;11790;49.578;11.214;2023-10-31T02:18:48;3.05;;;2.58;;
23242;SDS011;11790;49.578;11.214;2023-10-31T02:24:02;3.58;;;2.45;;
23242;SDS011;11790;49.578;11.214;2023-10-31T02:29:02;2.97;;;2.20;;
23242;SDS011;11790;49.578;11.214;2023-10-31T02:34:03;2.45;;;1.73;;
23242;SDS011;11790;49.578;11.214;2023-10-31T02:39:04;1.98;;;1.60;;
23242;SDS011;11790;49.578;11.214;2023-10-31T02:44:04;1.70;;;1.50;;
23242;SDS011;11790;49.578;11.214;2023-10-31T02:49:04;1.98;;;1.30;;
23242;SDS011;11790;49.578;11.214;2023-10-31T02:54:05;1.10;;;1.00;;
23242;SDS011;11790;49.578;11.214;2023-10-31T02:59:05;1.20;;;1.00;;
23242;SDS011;11790;49.578;11.214;2023-10-31T03:04:05;1.20;;;1.00;;
23242;SDS011;11790;49.578;11.214;2023-10-31T03:09:06;1.30;;;0.90;;
23242;SDS011;11790;49.578;11.214;2023-10-31T03:14:06;1.77;;;0.90;;
23242;SDS011;11790;49.578;11.214;2023-10-31T03:19:06;1.10;;;0.90;;
23242;SDS011;11790;49.578;11.214;2023-10-31T03:24:07;1.17;;;1.00;;
23242;SDS011;11790;49.578;11.214;2023-10-31T03:29:07;1.30;;;1.10;;
23242;SDS011;11790;49.578;11.214;2023-10-31T03:34:07;1.10;;;0.90;;
23242;SDS011;11790;49.578;11.214;2023-10-31T03:39:08;2.70;;;1.00;;
23242;SDS011;11790;49.578;11.214;2023-10-31T03:44:08;0.95;;;0.73;;
23242;SDS011;11790;49.578;11.214;2023-10-31T03:49:08;1.00;;;0.77;;
23242;SDS011;11790;49.578;11.214;2023-10-31T03:54:09;0.90;;;0.63;;
23242;SDS011;11790;49.578;11.214;2023-10-31T03:59:09;1.05;;;0.80;;
23242;SDS011;11790;49.578;11.214;2023-10-31T04:04:09;2.15;;;0.75;;
23242;SDS011;11790;49.578;11.214;2023-10-31T04:09:10;0.80;;;0.55;;
23242;SDS011;11790;49.578;11.214;2023-10-31T04:14:10;1.50;;;0.70;;
23242;SDS011;11790;49.578;11.214;2023-10-31T04:19:10;1.38;;;0.63;;
23242;SDS011;11790;49.578;11.214;2023-10-31T04:24:10;1.90;;;0.70;;
23242;SDS011;11790;49.578;11.214;2023-10-31T04:29:10;2.97;;;0.95;;
23242;SDS011;11790;49.578;11.214;2023-10-31T04:34:10;2.40;;;0.90;;
23242;SDS011;11790;49.578;11.214;2023-10-31T04:39:11;2.30;;;1.10;;
23242;SDS011;11790;49.578;11.214;2023-10-31T04:44:11;1.90;;;0.90;;
23242;SDS011;11790;49.578;11.214;2023-10-31T04:49:11;1.10;;;0.90;;
23242;SDS011;11790;49.578;11.214;2023-10-31T04:54:11;2.03;;;0.80;;
23242;SDS011;11790;49.578;11.214;2023-10-31T04:59:11;2.75;;;1.10;;
23242;SDS011;11790;49.578;11.214;2023-10-31T05:04:12;1.95;;;1.30;;
23242;SDS011;11790;49.578;11.214;2023-10-31T05:09:13;2.22;;;1.40;;
23242;SDS011;11790;49.578;11.214;2023-10-31T05:14:13;2.95;;;1.38;;
23242;SDS011;11790;49.578;11.214;2023-10-31T05:19:13;2.03;;;1.50;;
23242;SDS011;11790;49.578;11.214;2023-10-31T05:24:13;1.92;;;1.25;;
23242;SDS011;11790;49.578;11.214;2023-10-31T05:29:13;1.73;;;1.30;;
23242;SDS011;11790;49.578;11.214;2023-10-31T05:34:13;3.53;;;1.30;;
23242;SDS011;11790;49.578;11.214;2023-10-31T05:39:14;2.15;;;1.42;;
23242;SDS011;11790;49.578;11.214;2023-10-31T05:44:15;1.73;;;1.35;;
23242;SDS011;11790;49.578;11.214;2023-10-31T05:49:15;1.65;;;1.30;;
23242;SDS011;11790;49.578;11.214;2023-10-31T05:54:16;3.00;;;1.25;;
23242;SDS011;11790;49.578;11.214;2023-10-31T05:59:16;3.55;;;1.23;;
23242;SDS011;11790;49.578;11.214;2023-10-31T06:04:16;2.15;;;1.25;;
23242;SDS011;11790;49.578;11.214;2023-10-31T06:09:16;2.03;;;1.23;;
23242;SDS011;11790;49.578;11.214;2023-10-31T06:14:17;4.10;;;1.38;;
23242;SDS011;11790;49.578;11.214;2023-10-31T06:19:17;3.28;;;1.13;;
23242;SDS011;11790;49.578;11.214;2023-10-31T06:24:17;2.10;;;1.45;;
23242;SDS011;11790;49.578;11.214;2023-10-31T06:29:17;1.83;;;1.17;;
23242;SDS011;11790;49.578;11.214;2023-10-31T06:34:18;5.38;;;1.20;;
23242;SDS011;11790;49.578;11.214;2023-10-31T06:39:19;1.77;;;0.90;;
23242;SDS011;11790;49.578;11.214;2023-10-31T06:44:19;1.58;;;1.17;;
23242;SDS011;11790;49.578;11.214;2023-10-31T06:49:19;1.40;;;0.93;;
23242;SDS011;11790;49.578;11.214;2023-10-31T06:54:20;1.40;;;0.82;;
23242;SDS011;11790;49.578;11.214;2023-10-31T06:59:22;1.33;;;0.88;;
23242;SDS011;11790;49.578;11.214;2023-10-31T07:04:22;2.03;;;1.13;;
23242;SDS011;11790;49.578;11.214;2023-10-31T07:09:25;2.28;;;1.00;;
23242;SDS011;11790;49.578;11.214;2023-10-31T07:14:26;3.30;;;1.13;;
23242;SDS011;11790;49.578;11.214;2023-10-31T07:19:26;4.97;;;1.45;;
23242;SDS011;11790;49.578;11.214;2023-10-31T07:24:26;2.38;;;1.40;;
23242;SDS011;11790;49.578;11.214;2023-10-31T07:29:27;5.22;;;1.48;;
23242;SDS011;11790;49.578;11.214;2023-10-31T07:34:29;1.00;;;0.80;;
23242;SDS011;11790;49.578;11.214;2023-10-31T07:39:29;3.83;;;1.10;;
23242;SDS011;11790;49.578;11.214;2023-10-31T07:44:29;1.98;;;0.85;;
23242;SDS011;11790;49.578;11.214;2023-10-31T07:49:30;1.73;;;1.00;;
23242;SDS011;11790;49.578;11.214;2023-10-31T07:54:30;1.40;;;1.00;;
23242;SDS011;11790;49.578;11.214;2023-10-31T07:59:32;1.83;;;0.95;;
23242;SDS011;11790;49.578;11.214;2023-10-31T08:04:33;1.35;;;0.95;;
23242;SDS011;11790;49.578;11.214;2023-10-31T08:09:33;6.18;;;1.10;;
23242;SDS011;11790;49.578;11.214;2023-10-31T08:14:33;5.05;;;0.95;;
23242;SDS011;11790;49.578;11.214;2023-10-31T08:19:33;2.55;;;0.90;;
23242;SDS011;11790;49.578;11.214;2023-10-31T08:24:33;2.15;;;0.77;;
23242;SDS011;11790;49.578;11.214;2023-10-31T08:29:36;1.23;;;0.60;;
23242;SDS011;11790;49.578;11.214;2023-10-31T08:34:36;2.85;;;0.90;;
23242;SDS011;11790;49.578;11.214;2023-10-31T08:39:36;1.67;;;0.98;;
23242;SDS011;11790;49.578;11.214;2023-10-31T08:44:36;1.23;;;0.60;;
23242;SDS011;11790;49.578;11.214;2023-10-31T08:49:37;3.25;;;0.88;;
23242;SDS011;11790;49.578;11.214;2023-10-31T08:54:37;1.38;;;0.80;;
23242;SDS011;11790;49.578;11.214;2023-10-31T09:05:18;3.30;;;0.80;;
23242;SDS011;11790;49.578;11.214;2023-10-31T09:10:18;4.55;;;1.02;;
23242;SDS011;11790;49.578;11.214;2023-10-31T09:15:18;3.28;;;1.38;;
23242;SDS011;11790;49.578;11.214;2023-10-31T09:20:19;1.73;;;1.02;;
23242;SDS011;11790;49.578;11.214;2023-10-31T09:25:19;2.97;;;0.93;;
23242;SDS011;11790;49.578;11.214;2023-10-31T09:30:19;4.68;;;0.90;;
23242;SDS011;11790;49.578;11.214;2023-10-31T09:35:19;2.47;;;1.23;;
23242;SDS011;11790;49.578;11.214;2023-10-31T09:40:20;2.72;;;1.00;;
23242;SDS011;11790;49.578;11.214;2023-10-31T09:45:20;4.05;;;1.05;;
23242;SDS011;11790;49.578;11.214;2023-10-31T09:50:20;1.88;;;0.90;;
23242;SDS011;11790;49.578;11.214;2023-10-31T09:55:20;1.50;;;0.88;;
23242;SDS011;11790;49.578;11.214;2023-10-31T10:00:22;1.52;;;0.80;;
23242;SDS011;11790;49.578;11.214;2023-10-31T10:05:22;2.97;;;0.82;;
23242;SDS011;11790;49.578;11.214;2023-10-31T10:10:23;1.88;;;0.85;;
23242;SDS011;11790;49.578;11.214;2023-10-31T10:15:23;2.33;;;0.85;;
23242;SDS011;11790;49.578;11.214;2023-10-31T10:20:24;4.35;;;0.75;;
23242;SDS011;11790;49.578;11.214;2023-10-31T10:25:24;1.93;;;1.07;;
23242;SDS011;11790;49.578;11.214;2023-10-31T10:30:25;23.27;;;2.28;;
23242;SDS011;11790;49.578;11.214;2023-10-31T10:35:25;8.23;;;1.05;;
23242;SDS011;11790;49.578;11.214;2023-10-31T10:40:25;1.83;;;1.08;;
23242;SDS011;11790;49.578;11.214;2023-10-31T10:45:26;1.10;;;1.00;;
23242;SDS011;11790;49.578;11.214;2023-10-31T10:50:26;2.20;;;1.13;;
23242;SDS011;11790;49.578;11.214;2023-10-31T10:55:29;3.15;;;1.45;;
23242;SDS011;11790;49.578;11.214;2023-10-31T11:00:30;1.95;;;1.30;;
23242;SDS011;11790;49.578;11.214;2023-10-31T11:05:30;2.03;;;1.10;;
23242;SDS011;11790;49.578;11.214;2023-10-31T11:10:31;5.10;;;2.10;;
23242;SDS011;11790;49.578;11.214;2023-10-31T11:15:32;3.15;;;1.20;;
23242;SDS011;11790;49.578;11.214;2023-10-31T11:20:32;3.92;;;1.30;;
23242;SDS011;11790;49.578;11.214;2023-10-31T11:25:32;2.20;;;1.30;;
23242;SDS011;11790;49.578;11.214;2023-10-31T11:30:33;1.55;;;1.13;;
23242;SDS011;11790;49.578;11.214;2023-10-31T11:35:34;3.33;;;1.50;;
23242;SDS011;11790;49.578;11.214;2023-10-31T11:40:34;1.73;;;1.27;;
23242;SDS011;11790;49.578;11.214;2023-10-31T11:45:44;2.10;;;1.30;;
23242;SDS011;11790;49.578;11.214;2023-10-31T11:50:47;2.72;;;1.27;;
23242;SDS011;11790;49.578;11.214;2023-10-31T11:55:47;2.53;;;1.23;;
23242;SDS011;11790;49.578;11.214;2023-10-31T12:00:48;4.28;;;1.30;;
23242;SDS011;11790;49.578;11.214;2023-10-31T12:05:55;2.88;;;1.10;;
23242;SDS011;11790;49.578;11.214;2023-10-31T12:11:03;4.03;;;1.40;;
23242;SDS011;11790;49.578;11.214;2023-10-31T12:16:03;2.72;;;1.23;;
23242;SDS011;11790;49.578;11.214;2023-10-31T12:21:04;3.70;;;1.40;;
23242;SDS011;11790;49.578;11.214;2023-10-31T12:26:04;4.32;;;1.17;;
23242;SDS011;11790;49.578;11.214;2023-10-31T12:31:04;4.10;;;1.50;;
23242;SDS011;11790;49.578;11.214;2023-10-31T12:36:05;2.05;;;1.30;;
23242;SDS011;11790;49.578;11.214;2023-10-31T12:41:06;1.92;;;1.15;;
23242;SDS011;11790;49.578;11.214;2023-10-31T12:46:28;5.75;;;1.10;;
23242;SDS011;11790;49.578;11.214;2023-10-31T12:51:29;11.52;;;1.98;;
23242;SDS011;11790;49.578;11.214;2023-10-31T13:01:44;9.50;;;1.35;;
23242;SDS011;11790;49.578;11.214;2023-10-31T13:11:46;4.60;;;1.10;;
23242;SDS011;11790;49.578;11.214;2023-10-31T13:16:46;2.78;;;1.33;;
23242;SDS011;11790;49.578;11.214;2023-10-31T13:21:46;6.88;;;1.50;;
23242;SDS011;11790;49.578;11.214;2023-10-31T13:26:46;1.92;;;1.10;;
23242;SDS011;11790;49.578;11.214;2023-10-31T13:31:51;4.15;;;1.20;;
23242;SDS011;11790;49.578;11.214;2023-10-31T13:36:51;1.90;;;1.20;;
23242;SDS011;11790;49.578;11.214;2023-10-31T13:41:52;2.33;;;0.85;;
23242;SDS011;11790;49.578;11.214;2023-10-31T13:46:52;5.75;;;1.25;;
23242;SDS011;11790;49.578;11.214;2023-10-31T13:51:53;3.50;;;1.00;;
23242;SDS011;11790;49.578;11.214;2023-10-31T13:56:53;3.28;;;1.23;;
23242;SDS011;11790;49.578;11.214;2023-10-31T14:01:53;3.20;;;1.10;;
23242;SDS011;11790;49.578;11.214;2023-10-31T14:06:53;4.93;;;1.30;;
23242;SDS011;11790;49.578;11.214;2023-10-31T14:11:53;5.78;;;1.10;;
23242;SDS011;11790;49.578;11.214;2023-10-31T14:16:54;4.53;;;1.48;;
23242;SDS011;11790;49.578;11.214;2023-10-31T14:21:54;6.70;;;1.10;;
23242;SDS011;11790;49.578;11.214;2023-10-31T14:26:55;4.43;;;1.50;;
23242;SDS011;11790;49.578;11.214;2023-10-31T14:31:55;5.60;;;1.60;;
23242;SDS011;11790;49.578;11.214;2023-10-31T14:36:57;5.82;;;1.60;;
23242;SDS011;11790;49.578;11.214;2023-10-31T14:41:57;3.75;;;1.30;;
23242;SDS011;11790;49.578;11.214;2023-10-31T14:46:57;14.48;;;3.05;;
23242;SDS011;11790;49.578;11.214;2023-10-31T14:51:57;2.15;;;1.15;;
23242;SDS011;11790;49.578;11.214;2023-10-31T14:56:57;6.18;;;1.42;;
23242;SDS011;11790;49.578;11.214;2023-10-31T15:01:58;5.70;;;1.40;;
23242;SDS011;11790;49.578;11.214;2023-10-31T15:06:58;8.82;;;1.88;;
23242;SDS011;11790;49.578;11.214;2023-10-31T15:11:58;7.95;;;1.95;;
23242;SDS011;11790;49.578;11.214;2023-10-31T15:16:58;8.57;;;1.33;;
23242;SDS011;11790;49.578;11.214;2023-10-31T15:21:59;8.73;;;2.03;;
23242;SDS011;11790;49.578;11.214;2023-10-31T15:26:59;10.48;;;1.80;;
23242;SDS011;11790;49.578;11.214;2023-10-31T15:32:00;4.78;;;1.50;;
23242;SDS011;11790;49.578;11.214;2023-10-31T15:37:00;3.33;;;1.42;;
23242;SDS011;11790;49.578;11.214;2023-10-31T15:42:00;5.75;;;1.52;;
23242;SDS011;11790;49.578;11.214;2023-10-31T15:47:00;7.15;;;1.50;;
23242;SDS011;11790;49.578;11.214;2023-10-31T15:52:00;8.85;;;1.48;;
23242;SDS011;11790;49.578;11.214;2023-10-31T15:57:01;6.15;;;1.23;;
23242;SDS011;11790;49.578;11.214;2023-10-31T16:02:01;5.47;;;1.50;;
23242;SDS011;11790;49.578;11.214;2023-10-31T16:07:01;5.57;;;2.13;;
23242;SDS011;11790;49.578;11.214;2023-10-31T16:12:01;11.18;;;3.13;;
23242;SDS011;11790;49.578;11.214;2023-10-31T16:17:05;10.95;;;3.17;;
23242;SDS011;11790;49.578;11.214;2023-10-31T16:22:05;5.50;;;2.38;;
23242;SDS011;11790;49.578;11.214;2023-10-31T16:27:06;11.93;;;2.80;;
23242;SDS011;11790;49.578;11.214;2023-10-31T16:32:07;6.30;;;1.50;;
23242;SDS011;11790;49.578;11.214;2023-10-31T16:37:07;3.15;;;1.40;;
23242;SDS011;11790;49.578;11.214;2023-10-31T16:42:08;6.40;;;1.55;;
23242;SDS011;11790;49.578;11.214;2023-10-31T16:47:08;3.97;;;1.55;;
23242;SDS011;11790;49.578;11.214;2023-10-31T16:52:08;6.65;;;2.90;;
23242;SDS011;11790;49.578;11.214;2023-10-31T16:57:08;13.77;;;5.32;;
23242;SDS011;11790;49.578;11.214;2023-10-31T17:02:10;14.82;;;5.15;;
23242;SDS011;11790;49.578;11.214;2023-10-31T17:07:10;15.48;;;3.38;;
23242;SDS011;11790;49.578;11.214;2023-10-31T17:12:10;5.60;;;2.70;;
23242;SDS011;11790;49.578;11.214;2023-10-31T17:17:10;7.22;;;2.97;;
23242;SDS011;11790;49.578;11.214;2023-10-31T17:22:10;6.10;;;3.10;;
23242;SDS011;11790;49.578;11.214;2023-10-31T17:27:11;13.52;;;3.50;;
23242;SDS011;11790;49.578;11.214;2023-10-31T17:32:11;9.03;;;2.67;;
23242;SDS011;11790;49.578;11.214;2023-10-31T17:37:11;6.47;;;2.85;;
23242;SDS011;11790;49.578;11.214;2023-10-31T17:42:12;11.40;;;3.90;;
23242;SDS011;11790;49.578;11.214;2023-10-31T17:47:12;11.02;;;5.28;;
23242;SDS011;11790;49.578;11.214;2023-10-31T17:52:12;8.30;;;3.75;;
23242;SDS011;11790;49.578;11.214;2023-10-31T17:57:12;5.68;;;2.33;;
23242;SDS011;11790;49.578;11.214;2023-10-31T18:02:18;12.55;;;3.33;;
23242;SDS011;11790;49.578;11.214;2023-10-31T18:07:18;11.48;;;4.00;;
23242;SDS011;11790;49.578;11.214;2023-10-31T18:12:18;10.02;;;3.83;;
23242;SDS011;11790;49.578;11.214;2023-10-31T18:17:18;19.95;;;7.15;;
23242;SDS011;11790;49.578;11.214;2023-10-31T18:22:19;13.73;;;4.68;;
23242;SDS011;11790;49.578;11.214;2023-10-31T18:27:19;13.63;;;4.78;;
23242;SDS011;11790;49.578;11.214;2023-10-31T18:32:19;23.67;;;6.97;;
23242;SDS011;11790;49.578;11.214;2023-10-31T18:37:21;16.40;;;5.70;;
23242;SDS011;11790;49.578;11.214;2023-10-31T18:42:21;10.80;;;4.32;;
23242;SDS011;11790;49.578;11.214;2023-10-31T18:47:23;10.93;;;4.30;;
23242;SDS011;11790;49.578;11.214;2023-10-31T18:52:25;10.50;;;5.15;;
23242;SDS011;11790;49.578;11.214;2023-10-31T18:57:26;11.70;;;5.03;;
23242;SDS011;11790;49.578;11.214;2023-10-31T19:02:26;9.68;;;4.60;;
23242;SDS011;11790;49.578;11.214;2023-10-31T19:07:26;10.27;;;4.67;;
23242;SDS011;11790;49.578;11.214;2023-10-31T19:12:27;11.65;;;5.10;;
23242;SDS011;11790;49.578;11.214;2023-10-31T19:17:27;9.63;;;4.68;;
23242;SDS011;11790;49.578;11.214;2023-10-31T19:22:27;6.55;;;4.07;;
23242;SDS011;11790;49.578;11.214;2023-10-31T19:27:27;6.97;;;3.88;;
23242;SDS011;11790;49.578;11.214;2023-10-31T19:32:27;7.50;;;3.38;;
23242;SDS011;11790;49.578;11.214;2023-10-31T19:37:28;7.57;;;4.10;;
23242;SDS011;11790;49.578;11.214;2023-10-31T19:42:28;6.90;;;3.75;;
23242;SDS011;11790;49.578;11.214;2023-10-31T19:47:28;16.23;;;3.85;;
23242;SDS011;11790;49.578;11.214;2023-10-31T19:52:28;8.93;;;4.43;;
23242;SDS011;11790;49.578;11.214;2023-10-31T19:57:28;10.63;;;4.50;;
23242;SDS011;11790;49.578;11.214;2023-10-31T20:02:29;9.37;;;5.17;;
23242;SDS011;11790;49.578;11.214;2023-10-31T20:07:29;12.82;;;5.38;;
23242;SDS011;11790;49.578;11.214;2023-10-31T20:12:29;12.73;;;4.32;;
23242;SDS011;11790;49.578;11.214;2023-10-31T20:17:29;11.60;;;3.88;;
23242;SDS011;11790;49.578;11.214;2023-10-31T20:22:32;12.13;;;7.25;;
23242;SDS011;11790;49.578;11.214;2023-10-31T20:27:32;7.43;;;3.97;;
23242;SDS011;11790;49.578;11.214;2023-10-31T20:32:33;7.97;;;4.20;;
23242;SDS011;11790;49.578;11.214;2023-10-31T20:37:36;6.70;;;3.58;;
23242;SDS011;11790;49.578;11.214;2023-10-31T20:42:36;10.10;;;3.78;;
23242;SDS011;11790;49.578;11.214;2023-10-31T20:47:37;10.15;;;3.83;;
23242;SDS011;11790;49.578;11.214;2023-10-31T20:52:37;5.95;;;3.95;;
23242;SDS011;11790;49.578;11.214;2023-10-31T20:57:37;7.97;;;3.42;;
23242;SDS011;11790;49.578;11.214;2023-10-31T21:02:37;7.82;;;4.10;;
23242;SDS011;11790;49.578;11.214;2023-10-31T21:07:38;5.40;;;4.10;;
23242;SDS011;11790;49.578;11.214;2023-10-31T21:12:38;5.57;;;3.72;;
23242;SDS011;11790;49.578;11.214;2023-10-31T21:17:38;6.60;;;3.63;;
23242;SDS011;11790;49.578;11.214;2023-10-31T21:22:38;4.90;;;3.23;;
23242;SDS011;11790;49.578;11.214;2023-10-31T21:27:39;5.30;;;3.58;;
23242;SDS011;11790;49.578;11.214;2023-10-31T21:32:39;5.57;;;2.90;;
23242;SDS011;11790;49.578;11.214;2023-10-31T21:37:40;5.75;;;2.90;;
23242;SDS011;11790;49.578;11.214;2023-10-31T21:42:41;4.80;;;2.95;;
23242;SDS011;11790;49.578;11.214;2023-10-31T21:47:41;5.43;;;2.85;;
23242;SDS011;11790;49.578;11.214;2023-10-31T21:52:41;5.30;;;3.15;;
23242;SDS011;11790;49.578;11.214;2023-10-31T21:57:41;2.75;;;2.10;;
23242;SDS011;11790;49.578;11.214;2023-10-31T22:02:41;6.00;;;2.38;;
23242;SDS011;11790;49.578;11.214;2023-10-31T22:07:42;6.05;;;2.50;;
23242;SDS011;11790;49.578;11.214;2023-10-31T22:12:42;3.95;;;2.08;;
23242;SDS011;11790;49.578;11.214;2023-10-31T22:17:44;4.70;;;2.30;;
23242;SDS011;11790;49.578;11.214;2023-10-31T22:22:44;2.92;;;1.95;;
23242;SDS011;11790;49.578;11.214;2023-10-31T22:27:44;3.80;;;1.90;;
23242;SDS011;11790;49.578;11.214;2023-10-31T22:32:44;2.83;;;1.80;;
23242;SDS011;11790;49.578;11.214;2023-10-31T22:37:44;5.20;;;2.03;;
23242;SDS011;11790;49.578;11.214;2023-10-31T22:42:45;2.72;;;2.05;;
23242;SDS011;11790;49.578;11.214;2023-10-31T22:47:45;4.15;;;2.00;;
23242;SDS011;11790;49.578;11.214;2023-10-31T22:52:45;6.47;;;2.43;;
23242;SDS011;11790;49.578;11.214;2023-10-31T22:57:45;3.47;;;2.47;;
23242;SDS011;11790;49.578;11.214;2023-10-31T23:02:49;8.77;;;2.83;;
23242;SDS011;11790;49.578;11.214;2023-10-31T23:07:49;4.70;;;2.65;;
23242;SDS011;11790;49.578;11.214;2023-10-31T23:12:52;3.83;;;2.55;;
23242;SDS011;11790;49.578;11.214;2023-10-31T23:17:52;5.55;;;2.50;;
23242;SDS011;11790;49.578;11.214;2023-10-31T23:22:53;4.30;;;2.67;;
23242;SDS011;11790;49.578;11.214;2023-10-31T23:27:54;4.15;;;2.75;;
23242;SDS011;11790;49.578;11.214;2023-10-31T23:32:54;4.78;;;2.90;;
23242;SDS011;11790;49.578;11.214;2023-10-31T23:37:54;5.97;;;2.88;;
23242;SDS011;11790;49.578;11.214;2023-10-31T23:42:54;6.65;;;3.22;;
23242;SDS011;11790;49.578;11.214;2023-10-31T23:47:54;4.45;;;2.42;;
23242;SDS011;11790;49.578;11.214;2023-10-31T23:52:54;5.88;;;2.38;;
23242;SDS011;11790;49.578;11.214;2023-10-31T23:58:15;4.25;;;2.40;;
